createdAt,value
2024-02-21T00:00:58.967Z,3.59
2024-02-21T00:30:42.799Z,3.48
2024-02-21T01:15:16.531Z,3.40
2024-02-21T01:45:01.388Z,3.03
2024-02-21T02:29:36.349Z,3.28
2024-02-21T02:44:27.613Z,3.10
2024-02-21T02:59:19.743Z,3.37
2024-02-21T03:14:10.807Z,3.08
2024-02-21T03:29:02.503Z,2.61
2024-02-21T03:43:53.459Z,2.54
2024-02-21T03:58:44.923Z,2.69
2024-02-21T04:13:35.585Z,3.14
2024-02-21T04:28:26.915Z,3.14
2024-02-21T04:43:18.545Z,3.27
2024-02-21T04:58:08.851Z,3.23
2024-02-21T05:12:59.290Z,3.04
2024-02-21T05:27:49.990Z,3.42
2024-02-21T05:42:41.332Z,3.14
2024-02-21T05:57:33.036Z,3.22
2024-02-21T06:12:26.238Z,3.23
2024-02-21T06:27:16.872Z,2.72
2024-02-21T06:42:07.588Z,3.34
2024-02-21T06:56:58.053Z,3.24
2024-02-21T07:11:50.692Z,3.17
2024-02-21T07:26:42.364Z,2.60
2024-02-21T07:41:34.076Z,3.13
2024-02-21T07:56:26.151Z,3.37
2024-02-21T08:11:17.955Z,3.23
2024-02-21T08:26:10.398Z,2.96
2024-02-21T08:41:02.556Z,3.13
2024-02-21T08:55:54.340Z,2.66
2024-02-21T09:10:47.152Z,2.99
2024-02-21T09:25:40.166Z,2.37
2024-02-21T09:40:33.532Z,2.60
2024-02-21T09:55:26.055Z,2.70
2024-02-21T10:10:17.855Z,2.16
2024-02-21T10:25:11.112Z,2.28
2024-02-21T10:40:06.506Z,1.70
2024-02-21T10:55:01.137Z,1.83
2024-02-21T11:54:30.396Z,1.56
2024-02-21T12:54:02.010Z,1.49
2024-02-21T13:08:52.866Z,1.26
2024-02-21T13:23:44.621Z,1.19
2024-02-21T14:44:15.838Z,1.83
2024-02-21T15:29:41.877Z,1.73
2024-02-21T15:44:33.209Z,1.52
2024-02-21T15:59:24.910Z,1.49
2024-02-21T16:14:16.863Z,1.91
2024-02-21T16:29:08.231Z,1.60
2024-02-21T16:43:59.691Z,2.97
2024-02-21T16:58:52.033Z,2.50
2024-02-21T17:13:43.566Z,2.42
2024-02-21T17:28:33.990Z,2.97
2024-02-21T17:43:25.169Z,3.01
2024-02-21T17:58:16.410Z,3.62
2024-02-21T18:13:08.099Z,2.91
2024-02-21T18:27:59.198Z,3.37
2024-02-21T18:42:52.768Z,3.62
2024-02-21T18:57:46.524Z,2.71
2024-02-21T19:12:38.444Z,2.69
2024-02-21T19:27:30.168Z,3.03
2024-02-21T19:42:22.302Z,2.59
2024-02-21T19:57:14.399Z,2.40
2024-02-21T20:12:05.885Z,2.51
2024-02-21T20:26:58.264Z,1.56
2024-02-21T20:41:51.225Z,1.60
2024-02-21T20:56:42.534Z,1.50
2024-02-21T21:26:25.153Z,2.00
2024-02-21T21:41:16.699Z,2.30
2024-02-21T21:56:08.118Z,2.21
2024-02-21T22:10:58.244Z,2.80
2024-02-21T22:25:49.900Z,2.29
2024-02-21T22:40:53.523Z,2.12
2024-02-21T22:55:46.876Z,2.24
2024-02-21T23:10:41.167Z,2.10
2024-02-21T23:40:39.781Z,2.14
2024-02-21T23:55:33.420Z,1.62
